createdAt,value
2018-09-21T00:00:30.994Z,18.50
2018-09-21T00:03:01.710Z,18.50
2018-09-21T00:05:32.642Z,18.50
2018-09-21T00:08:03.081Z,18.50
2018-09-21T00:10:33.650Z,18.50
2018-09-21T00:13:04.459Z,18.50
2018-09-21T00:15:35.673Z,18.50
2018-09-21T00:18:06.749Z,18.40
2018-09-21T00:20:37.165Z,18.40
2018-09-21T00:23:07.817Z,18.40
2018-09-21T00:25:54.054Z,18.40
2018-09-21T00:28:24.654Z,18.40
2018-09-21T00:30:55.366Z,18.40
2018-09-21T00:33:26.002Z,18.40
2018-09-21T00:35:56.660Z,18.30
2018-09-21T00:38:27.271Z,18.30
2018-09-21T00:40:58.153Z,18.30
2018-09-21T00:43:28.947Z,18.30
2018-09-21T00:45:59.445Z,18.30
2018-09-21T00:48:30.737Z,18.30
2018-09-21T00:51:01.389Z,18.30
2018-09-21T00:53:31.824Z,18.30
2018-09-21T00:56:02.823Z,18.30
2018-09-21T00:58:33.371Z,18.30
2018-09-21T01:01:05.064Z,18.20
2018-09-21T01:03:36.378Z,18.20
2018-09-21T01:06:07.077Z,18.20
2018-09-21T01:08:37.862Z,18.20
2018-09-21T01:11:34.305Z,18.20
2018-09-21T01:14:05.589Z,18.20
2018-09-21T01:16:36.290Z,18.10
2018-09-21T01:19:07.285Z,18.10
2018-09-21T01:21:38.180Z,18.10
2018-09-21T01:24:09.311Z,18.10
2018-09-21T01:26:39.921Z,18.10
2018-09-21T01:29:10.529Z,18.10
2018-09-21T01:31:41.604Z,18.10
2018-09-21T01:34:12.344Z,18.10
2018-09-21T01:36:42.914Z,18.10
2018-09-21T01:39:13.690Z,18.10
2018-09-21T01:41:44.254Z,18.00
2018-09-21T01:44:15.014Z,18.00
2018-09-21T01:46:46.038Z,18.00
2018-09-21T01:49:17.577Z,18.00
2018-09-21T01:51:48.221Z,18.00
2018-09-21T01:54:19.290Z,18.00
2018-09-21T01:56:49.749Z,18.00
2018-09-21T01:59:20.940Z,18.00
2018-09-21T02:01:51.628Z,18.00
2018-09-21T02:04:26.387Z,18.00
2018-09-21T02:06:57.499Z,17.90
2018-09-21T02:09:28.633Z,17.90
2018-09-21T02:11:59.180Z,17.90
2018-09-21T02:14:30.070Z,17.90
2018-09-21T02:17:00.781Z,17.90
2018-09-21T02:19:31.533Z,17.90
2018-09-21T02:22:02.369Z,17.90
2018-09-21T02:24:32.954Z,17.90
2018-09-21T02:27:04.122Z,17.90
2018-09-21T02:29:34.563Z,17.80
2018-09-21T02:32:05.382Z,17.80
2018-09-21T02:34:36.024Z,17.80
2018-09-21T02:37:06.907Z,17.80
2018-09-21T02:39:37.591Z,17.80
2018-09-21T02:42:08.413Z,17.80
2018-09-21T02:44:39.284Z,17.80
2018-09-21T02:47:09.881Z,17.80
2018-09-21T02:49:40.424Z,17.80
2018-09-21T02:52:11.009Z,17.80
2018-09-21T02:54:41.662Z,17.80
2018-09-21T02:57:12.612Z,17.80
2018-09-21T02:59:43.137Z,17.80
2018-09-21T03:02:13.646Z,17.80
2018-09-21T03:04:49.114Z,17.80
2018-09-21T03:07:19.638Z,17.70
2018-09-21T03:09:50.254Z,17.70
2018-09-21T03:12:20.973Z,17.70
2018-09-21T03:14:52.174Z,17.70
2018-09-21T03:17:23.068Z,17.70
2018-09-21T03:19:53.701Z,17.70
2018-09-21T03:22:24.377Z,17.70
2018-09-21T03:24:55.261Z,17.70
2018-09-21T03:27:25.930Z,17.70
2018-09-21T03:29:56.452Z,17.70
2018-09-21T03:32:27.388Z,17.70
2018-09-21T03:34:57.990Z,17.70
2018-09-21T03:37:28.522Z,17.70
2018-09-21T03:39:59.045Z,17.70
2018-09-21T03:42:31.475Z,17.70
2018-09-21T03:45:02.135Z,17.70
2018-09-21T03:47:34.320Z,17.60
2018-09-21T03:50:05.505Z,17.70
2018-09-21T03:52:36.301Z,17.70
2018-09-21T03:55:07.502Z,17.60
2018-09-21T03:57:39.480Z,17.60
2018-09-21T04:00:10.489Z,17.60
2018-09-21T04:02:40.891Z,17.60
2018-09-21T04:05:12.297Z,17.60
2018-09-21T04:07:43.034Z,17.60
2018-09-21T04:10:14.195Z,17.60
2018-09-21T04:12:45.677Z,17.60
2018-09-21T04:15:16.266Z,17.60
2018-09-21T04:17:47.353Z,17.60
2018-09-21T04:20:18.128Z,17.60
2018-09-21T04:22:56.431Z,17.50
2018-09-21T04:25:27.371Z,17.60
2018-09-21T04:27:58.030Z,17.60
2018-09-21T04:30:29.340Z,17.60
2018-09-21T04:33:00.382Z,17.60
2018-09-21T04:35:30.916Z,17.60
2018-09-21T04:38:01.421Z,17.50
2018-09-21T04:40:32.495Z,17.60
2018-09-21T04:43:03.285Z,17.60
2018-09-21T04:45:33.813Z,17.50
2018-09-21T04:48:04.431Z,17.50
2018-09-21T04:50:35.277Z,17.50
2018-09-21T04:53:05.817Z,17.50
2018-09-21T04:55:36.541Z,17.50
2018-09-21T04:58:07.387Z,17.50
2018-09-21T05:00:38.023Z,17.50
2018-09-21T05:03:08.843Z,17.50
2018-09-21T05:05:39.472Z,17.50
2018-09-21T05:08:10.436Z,17.50
2018-09-21T05:10:41.666Z,17.50
2018-09-21T05:13:12.334Z,17.40
2018-09-21T05:15:42.903Z,17.40
2018-09-21T05:18:13.652Z,17.40
2018-09-21T05:20:44.582Z,17.40
2018-09-21T05:23:15.239Z,17.40
2018-09-21T05:25:46.209Z,17.40
2018-09-21T05:28:16.978Z,17.40
2018-09-21T05:30:48.235Z,17.40
2018-09-21T05:33:19.093Z,17.40
2018-09-21T05:35:49.934Z,17.40
2018-09-21T05:38:20.940Z,17.40
2018-09-21T05:40:51.515Z,17.40
2018-09-21T05:43:22.323Z,17.40
2018-09-21T05:45:55.163Z,17.40
2018-09-21T05:48:25.634Z,17.40
2018-09-21T05:50:57.710Z,17.40
2018-09-21T05:53:28.550Z,17.50
2018-09-21T05:56:01.297Z,17.40
2018-09-21T05:58:32.724Z,17.40
2018-09-21T06:01:03.463Z,17.50
2018-09-21T06:03:38.133Z,17.40
2018-09-21T06:06:08.791Z,17.40
2018-09-21T06:08:41.484Z,17.40
2018-09-21T06:11:15.568Z,17.40
2018-09-21T06:13:46.605Z,17.40
2018-09-21T06:16:17.281Z,17.40
2018-09-21T06:18:48.670Z,17.50
2018-09-21T06:21:19.815Z,17.50
2018-09-21T06:23:50.663Z,17.50
2018-09-21T06:26:21.741Z,17.40
2018-09-21T06:28:53.236Z,17.50
2018-09-21T06:31:24.234Z,17.50
2018-09-21T06:33:54.944Z,17.50
2018-09-21T06:36:25.563Z,17.50
2018-09-21T06:38:56.167Z,17.50
2018-09-21T06:41:27.121Z,17.50
2018-09-21T06:43:58.195Z,17.50
2018-09-21T06:46:29.065Z,17.60
2018-09-21T06:49:00.252Z,17.60
2018-09-21T06:51:31.426Z,17.60
2018-09-21T06:54:03.453Z,17.50
2018-09-21T06:56:34.172Z,17.60
2018-09-21T06:59:05.420Z,17.60
2018-09-21T07:01:36.187Z,17.60
2018-09-21T07:04:06.801Z,17.50
2018-09-21T07:06:37.556Z,17.60
2018-09-21T07:09:12.006Z,17.60
2018-09-21T07:11:43.331Z,17.60
2018-09-21T07:14:14.176Z,17.60
2018-09-21T07:16:45.090Z,17.60
2018-09-21T07:19:15.790Z,17.60
2018-09-21T07:21:46.310Z,17.60
2018-09-21T07:24:17.125Z,17.60
2018-09-21T07:26:47.564Z,17.60
2018-09-21T07:29:18.442Z,17.70
2018-09-21T07:31:49.033Z,17.70
2018-09-21T07:34:19.714Z,17.70
2018-09-21T07:36:50.564Z,17.70
2018-09-21T07:39:21.037Z,17.70
2018-09-21T07:41:51.948Z,17.70
2018-09-21T07:44:22.799Z,17.70
2018-09-21T07:46:53.576Z,17.80
2018-09-21T07:49:24.447Z,17.80
2018-09-21T07:51:55.502Z,17.80
2018-09-21T07:54:26.290Z,17.80
2018-09-21T07:56:56.940Z,17.80
2018-09-21T07:59:27.715Z,17.80
2018-09-21T08:01:59.085Z,17.80
2018-09-21T08:04:30.152Z,17.90
2018-09-21T08:07:00.991Z,17.90
2018-09-21T08:09:31.999Z,17.90
2018-09-21T08:12:02.945Z,17.90
2018-09-21T08:14:33.825Z,17.90
2018-09-21T08:17:04.334Z,17.90
2018-09-21T08:19:34.994Z,18.00
2018-09-21T08:22:05.864Z,18.00
2018-09-21T08:24:37.095Z,18.00
2018-09-21T08:27:09.767Z,18.00
2018-09-21T08:29:40.510Z,18.00
2018-09-21T08:32:11.317Z,18.00
2018-09-21T08:34:42.180Z,18.00
2018-09-21T08:37:13.669Z,18.00
2018-09-21T08:39:44.453Z,18.00
2018-09-21T08:42:15.177Z,17.90
2018-09-21T08:44:45.899Z,17.90
2018-09-21T08:47:17.368Z,17.90
2018-09-21T08:49:47.961Z,17.90
2018-09-21T08:52:18.878Z,17.90
2018-09-21T08:54:50.482Z,17.90
2018-09-21T08:57:21.417Z,17.90
2018-09-21T08:59:52.675Z,17.80
2018-09-21T09:02:23.386Z,17.80
2018-09-21T09:04:54.207Z,17.80
2018-09-21T09:07:24.803Z,17.80
2018-09-21T09:09:56.244Z,17.80
2018-09-21T09:12:26.863Z,17.80
2018-09-21T09:14:57.473Z,17.80
2018-09-21T09:17:28.411Z,17.80
2018-09-21T09:19:59.046Z,17.80
2018-09-21T09:22:34.897Z,17.80
2018-09-21T09:25:13.239Z,17.80
2018-09-21T09:27:44.460Z,17.80
2018-09-21T09:30:15.023Z,17.70
2018-09-21T09:32:46.469Z,17.70
2018-09-21T09:35:17.113Z,17.70
2018-09-21T09:37:47.898Z,17.70
2018-09-21T09:40:18.847Z,17.70
2018-09-21T09:42:50.014Z,17.70
2018-09-21T09:45:21.116Z,17.70
2018-09-21T09:48:08.560Z,17.60
2018-09-21T09:50:40.652Z,17.60
2018-09-21T09:53:11.536Z,17.60
2018-09-21T09:55:42.947Z,17.60
2018-09-21T09:58:13.621Z,17.50
2018-09-21T10:00:49.246Z,17.50
2018-09-21T10:03:20.753Z,17.50
2018-09-21T10:05:51.420Z,17.50
2018-09-21T10:08:22.107Z,17.50
2018-09-21T10:10:53.285Z,17.50
2018-09-21T10:13:23.913Z,17.50
2018-09-21T10:15:54.796Z,17.50
2018-09-21T10:18:25.462Z,17.40
2018-09-21T10:20:56.565Z,17.40
2018-09-21T10:23:27.602Z,17.40
2018-09-21T10:26:00.291Z,17.40
2018-09-21T10:28:32.186Z,17.40
2018-09-21T10:31:03.071Z,17.40
2018-09-21T10:33:34.697Z,17.40
2018-09-21T10:36:05.653Z,17.40
2018-09-21T10:38:36.201Z,17.40
2018-09-21T10:41:06.839Z,17.40
2018-09-21T10:43:37.715Z,17.40
2018-09-21T10:46:08.431Z,17.30
2018-09-21T10:48:39.458Z,17.30
2018-09-21T10:51:11.028Z,17.30
2018-09-21T10:53:41.860Z,17.30
2018-09-21T10:56:13.028Z,17.30
2018-09-21T10:58:44.163Z,17.30
2018-09-21T11:01:14.825Z,17.30
2018-09-21T11:03:45.939Z,17.30
2018-09-21T11:06:16.824Z,17.30
2018-09-21T11:08:47.778Z,17.30
2018-09-21T11:11:21.630Z,17.30
2018-09-21T11:13:53.027Z,17.30
2018-09-21T11:16:23.922Z,17.30
2018-09-21T11:18:55.531Z,17.20
2018-09-21T11:21:26.119Z,17.30
2018-09-21T11:23:57.154Z,17.20
2018-09-21T11:26:27.875Z,17.20
2018-09-21T11:28:58.572Z,17.20
2018-09-21T11:31:29.265Z,17.30
2018-09-21T11:33:59.687Z,17.30
2018-09-21T11:36:30.578Z,17.30
2018-09-21T11:39:01.366Z,17.30
2018-09-21T11:41:32.182Z,17.20
2018-09-21T11:44:03.171Z,17.30
2018-09-21T11:46:33.842Z,17.30
2018-09-21T11:49:04.562Z,17.30
2018-09-21T11:51:35.505Z,17.30
2018-09-21T11:54:06.644Z,17.30
2018-09-21T11:56:38.034Z,17.30
2018-09-21T11:59:09.249Z,17.30
2018-09-21T12:01:41.017Z,17.40
2018-09-21T12:04:17.638Z,17.40
2018-09-21T12:06:48.805Z,17.40
2018-09-21T12:09:19.643Z,17.40
2018-09-21T12:11:50.686Z,17.50
2018-09-21T12:14:21.518Z,17.40
2018-09-21T12:16:52.532Z,17.40
2018-09-21T12:19:23.612Z,17.30
2018-09-21T12:21:54.169Z,17.30
2018-09-21T12:24:25.365Z,17.30
2018-09-21T12:26:56.367Z,17.30
2018-09-21T12:29:26.928Z,17.20
2018-09-21T12:31:57.542Z,17.20
2018-09-21T12:34:28.756Z,17.20
2018-09-21T12:36:59.418Z,17.20
2018-09-21T12:39:30.200Z,17.20
2018-09-21T12:42:01.085Z,17.20
2018-09-21T12:44:32.218Z,17.20
2018-09-21T12:47:03.043Z,17.20
2018-09-21T12:49:35.231Z,17.20
2018-09-21T12:52:06.025Z,17.20
2018-09-21T12:54:37.253Z,17.20
2018-09-21T12:57:08.237Z,17.20
2018-09-21T12:59:39.446Z,17.20
2018-09-21T13:02:10.379Z,17.20
2018-09-21T13:04:41.464Z,17.20
2018-09-21T13:07:12.240Z,17.20
2018-09-21T13:09:42.944Z,17.20
2018-09-21T13:12:14.375Z,17.20
2018-09-21T13:14:45.320Z,17.20
2018-09-21T13:17:15.991Z,17.20
2018-09-21T13:19:46.492Z,17.20
2018-09-21T13:22:17.570Z,17.20
2018-09-21T13:24:48.830Z,17.30
2018-09-21T13:27:19.544Z,17.30
2018-09-21T13:29:50.272Z,17.30
2018-09-21T13:32:21.511Z,17.40
2018-09-21T13:34:52.462Z,17.40
2018-09-21T13:37:23.418Z,17.40
2018-09-21T13:39:54.313Z,17.40
2018-09-21T13:42:25.380Z,17.50
2018-09-21T13:44:55.952Z,17.30
2018-09-21T13:47:27.221Z,17.20
2018-09-21T13:49:58.011Z,17.00
2018-09-21T13:52:34.360Z,17.10
2018-09-21T13:55:06.526Z,17.10
2018-09-21T13:57:38.859Z,17.20
2018-09-21T14:00:12.123Z,17.30
2018-09-21T14:02:45.218Z,17.30
2018-09-21T14:05:17.156Z,17.30
2018-09-21T14:07:49.582Z,17.30
2018-09-21T14:10:20.497Z,17.20
2018-09-21T14:12:51.579Z,17.20
2018-09-21T14:15:22.572Z,17.20
2018-09-21T14:17:53.541Z,17.20
2018-09-21T14:20:24.376Z,17.20
2018-09-21T14:22:55.018Z,17.20
2018-09-21T14:25:26.395Z,17.20
2018-09-21T14:27:57.585Z,17.10
2018-09-21T14:30:28.276Z,17.10
2018-09-21T14:32:59.163Z,17.10
2018-09-21T14:35:30.074Z,17.10
2018-09-21T14:38:01.805Z,17.00
2018-09-21T14:40:32.362Z,17.00
2018-09-21T14:43:03.240Z,16.90
2018-09-21T14:45:34.308Z,16.90
2018-09-21T14:48:05.186Z,16.90
2018-09-21T14:50:42.423Z,16.90
2018-09-21T14:53:13.471Z,16.90
2018-09-21T14:55:44.274Z,16.90
2018-09-21T14:58:15.121Z,16.90
2018-09-21T15:00:45.866Z,16.90
2018-09-21T15:03:17.691Z,16.80
2018-09-21T15:05:48.679Z,16.80
2018-09-21T15:08:19.518Z,16.80
2018-09-21T15:10:50.788Z,16.80
2018-09-21T15:13:21.951Z,16.70
2018-09-21T15:15:52.964Z,16.70
2018-09-21T15:18:24.383Z,16.70
2018-09-21T15:20:55.097Z,16.70
2018-09-21T15:23:26.176Z,16.70
2018-09-21T15:25:56.738Z,16.70
2018-09-21T15:28:27.409Z,16.70
2018-09-21T15:30:58.487Z,16.70
2018-09-21T15:33:30.460Z,16.70
2018-09-21T15:36:01.262Z,16.70
2018-09-21T15:38:32.054Z,16.60
2018-09-21T15:41:02.800Z,16.60
2018-09-21T15:43:33.824Z,16.60
2018-09-21T15:46:04.984Z,16.60
2018-09-21T15:48:36.152Z,16.60
2018-09-21T15:51:07.116Z,16.60
2018-09-21T15:53:38.842Z,16.50
2018-09-21T15:56:10.035Z,16.60
2018-09-21T15:58:41.095Z,16.60
2018-09-21T16:01:12.569Z,16.60
2018-09-21T16:03:43.957Z,16.60
2018-09-21T16:06:14.630Z,16.60
2018-09-21T16:08:45.354Z,16.50
2018-09-21T16:11:16.178Z,16.50
2018-09-21T16:13:47.585Z,16.50
2018-09-21T16:16:18.628Z,16.50
2018-09-21T16:18:49.609Z,16.50
2018-09-21T16:21:20.438Z,16.50
2018-09-21T16:23:51.328Z,16.40
2018-09-21T16:26:22.153Z,16.40
2018-09-21T16:28:53.428Z,16.40
2018-09-21T16:31:24.003Z,16.40
2018-09-21T16:33:54.882Z,16.30
2018-09-21T16:36:25.585Z,16.30
2018-09-21T16:38:57.701Z,16.30
2018-09-21T16:41:28.166Z,16.30
2018-09-21T16:43:59.545Z,16.20
2018-09-21T16:46:30.549Z,16.20
2018-09-21T16:49:01.551Z,16.20
2018-09-21T16:51:32.361Z,16.10
2018-09-21T16:54:03.686Z,16.10
2018-09-21T16:56:34.482Z,16.10
2018-09-21T16:59:05.507Z,16.10
2018-09-21T17:01:36.214Z,16.00
2018-09-21T17:04:07.967Z,16.00
2018-09-21T17:06:39.250Z,16.00
2018-09-21T17:09:11.943Z,16.00
2018-09-21T17:11:43.019Z,15.90
2018-09-21T17:14:14.888Z,15.90
2018-09-21T17:16:46.502Z,15.90
2018-09-21T17:19:17.965Z,15.90
2018-09-21T17:21:49.305Z,15.90
2018-09-21T17:24:21.088Z,15.80
2018-09-21T17:26:52.096Z,15.80
2018-09-21T17:29:23.055Z,15.80
2018-09-21T17:31:54.375Z,15.80
2018-09-21T17:34:25.464Z,15.80
2018-09-21T17:36:56.521Z,15.70
2018-09-21T17:39:27.387Z,15.70
2018-09-21T17:41:58.353Z,15.70
2018-09-21T17:44:29.155Z,15.70
2018-09-21T17:47:00.484Z,15.60
2018-09-21T17:49:35.833Z,15.60
2018-09-21T17:52:06.815Z,15.60
2018-09-21T17:54:38.267Z,15.60
2018-09-21T18:00:16.741Z,15.60
2018-09-21T18:02:47.639Z,15.50
2018-09-21T18:05:18.788Z,15.50
2018-09-21T18:07:50.425Z,15.50
2018-09-21T18:10:21.543Z,15.50
2018-09-21T18:12:52.570Z,15.50
2018-09-21T18:15:24.087Z,15.40
2018-09-21T18:17:54.940Z,15.40
2018-09-21T18:20:27.161Z,15.40
2018-09-21T18:22:57.904Z,15.40
2018-09-21T18:25:28.819Z,15.40
2018-09-21T18:28:00.722Z,15.40
2018-09-21T18:30:31.817Z,15.40
2018-09-21T18:33:03.526Z,15.40
2018-09-21T18:35:50.408Z,15.30
2018-09-21T18:38:21.617Z,15.30
2018-09-21T18:40:52.522Z,15.20
2018-09-21T18:43:23.358Z,15.20
2018-09-21T18:45:54.374Z,15.10
2018-09-21T18:48:25.541Z,15.10
2018-09-21T18:50:56.580Z,15.10
2018-09-21T18:53:32.465Z,15.10
2018-09-21T18:56:03.613Z,15.10
2018-09-21T18:58:34.687Z,15.10
2018-09-21T19:01:05.741Z,15.10
2018-09-21T19:03:37.097Z,15.00
2018-09-21T19:06:09.041Z,15.00
2018-09-21T19:08:40.169Z,15.00
2018-09-21T19:11:11.231Z,15.00
2018-09-21T19:13:42.128Z,15.00
2018-09-21T19:16:13.073Z,14.90
2018-09-21T19:18:44.494Z,14.90
2018-09-21T19:21:15.393Z,14.90
2018-09-21T19:23:46.552Z,14.90
2018-09-21T19:26:17.759Z,14.90
2018-09-21T19:28:48.664Z,14.80
2018-09-21T19:31:20.601Z,14.80
2018-09-21T19:33:51.477Z,14.80
2018-09-21T19:36:22.533Z,14.80
2018-09-21T19:38:53.619Z,14.80
2018-09-21T19:41:33.438Z,14.80
2018-09-21T19:44:07.347Z,14.80
2018-09-21T19:46:38.773Z,14.80
2018-09-21T19:49:09.825Z,14.80
2018-09-21T19:51:40.817Z,14.80
2018-09-21T19:54:11.517Z,14.80
2018-09-21T19:56:42.632Z,14.80
2018-09-21T19:59:20.608Z,14.80
2018-09-21T20:01:51.975Z,14.80
2018-09-21T20:04:23.556Z,14.80
2018-09-21T20:06:55.644Z,14.80
2018-09-21T20:09:26.936Z,14.70
2018-09-21T20:11:57.778Z,14.70
2018-09-21T20:14:28.909Z,14.70
2018-09-21T20:16:59.845Z,14.70
2018-09-21T20:19:31.120Z,14.70
2018-09-21T20:22:02.468Z,14.70
2018-09-21T20:24:33.904Z,14.70
2018-09-21T20:27:10.971Z,14.70
2018-09-21T20:29:41.574Z,14.70
2018-09-21T20:32:17.438Z,14.60
2018-09-21T20:34:48.297Z,14.60
2018-09-21T20:37:19.123Z,14.60
2018-09-21T20:39:50.109Z,14.60
2018-09-21T20:42:21.207Z,14.60
2018-09-21T20:44:53.111Z,14.70
2018-09-21T20:47:24.165Z,14.60
2018-09-21T20:49:54.887Z,14.40
2018-09-21T20:52:25.782Z,14.30
2018-09-21T20:54:56.544Z,14.40
2018-09-21T20:57:27.655Z,14.50
2018-09-21T20:59:58.829Z,14.50
2018-09-21T21:02:30.136Z,14.60
2018-09-21T21:05:00.848Z,14.60
2018-09-21T21:07:31.820Z,14.60
2018-09-21T21:10:02.945Z,14.60
2018-09-21T21:12:34.537Z,14.60
2018-09-21T21:15:05.968Z,14.60
2018-09-21T21:17:36.885Z,14.60
2018-09-21T21:20:07.853Z,14.60
2018-09-21T21:22:38.671Z,14.70
2018-09-21T21:25:09.610Z,14.60
2018-09-21T21:27:40.364Z,14.60
2018-09-21T21:30:11.254Z,14.60
2018-09-21T21:32:42.047Z,14.60
2018-09-21T21:35:12.855Z,14.60
2018-09-21T21:37:44.255Z,14.70
2018-09-21T21:40:15.086Z,14.70
2018-09-21T21:42:45.964Z,14.60
2018-09-21T21:45:20.334Z,14.60
2018-09-21T21:47:51.097Z,14.60
2018-09-21T21:50:22.092Z,14.60
2018-09-21T21:52:53.276Z,14.60
2018-09-21T21:55:24.259Z,14.60
2018-09-21T21:57:55.029Z,14.70
2018-09-21T22:00:30.060Z,14.70
2018-09-21T22:03:01.978Z,14.70
2018-09-21T22:05:32.947Z,14.70
2018-09-21T22:08:03.732Z,14.70
2018-09-21T22:10:34.876Z,14.70
2018-09-21T22:13:10.818Z,14.60
2018-09-21T22:15:41.925Z,14.60
2018-09-21T22:18:12.854Z,14.60
2018-09-21T22:20:43.541Z,14.60
2018-09-21T22:23:14.190Z,14.60
2018-09-21T22:25:45.243Z,14.50
2018-09-21T22:28:15.772Z,14.50
2018-09-21T22:30:47.301Z,14.50
2018-09-21T22:33:18.801Z,14.50
2018-09-21T22:35:49.798Z,14.60
2018-09-21T22:38:20.812Z,14.50
2018-09-21T22:40:51.696Z,14.60
2018-09-21T22:43:22.447Z,14.60
2018-09-21T22:45:53.559Z,14.60
2018-09-21T22:48:24.920Z,14.60
2018-09-21T22:50:55.702Z,14.60
2018-09-21T22:53:26.568Z,14.60
2018-09-21T22:55:57.207Z,14.60
2018-09-21T22:58:28.280Z,14.50
2018-09-21T23:00:59.707Z,14.50
2018-09-21T23:03:30.544Z,14.50
2018-09-21T23:06:01.441Z,14.50
2018-09-21T23:08:32.235Z,14.50
2018-09-21T23:11:03.157Z,14.50
2018-09-21T23:13:33.926Z,14.50
2018-09-21T23:16:04.860Z,14.50
2018-09-21T23:18:35.701Z,14.50
2018-09-21T23:21:06.479Z,14.50
2018-09-21T23:23:37.055Z,14.40
2018-09-21T23:26:07.963Z,14.40
2018-09-21T23:28:38.854Z,14.40
2018-09-21T23:31:09.735Z,14.40
2018-09-21T23:33:40.300Z,14.40
2018-09-21T23:36:11.010Z,14.40
2018-09-21T23:38:41.921Z,14.30
2018-09-21T23:41:12.917Z,14.30
2018-09-21T23:43:44.027Z,14.30
2018-09-21T23:46:14.609Z,14.30
2018-09-21T23:48:45.152Z,14.30
2018-09-21T23:51:15.724Z,14.30
2018-09-21T23:53:46.422Z,14.30
2018-09-21T23:56:16.899Z,14.30
2018-09-21T23:58:47.965Z,14.30
